createdAt,value
2023-12-17T00:00:56.026Z,98.19
2023-12-17T00:03:26.427Z,98.30
2023-12-17T00:05:55.453Z,99.30
2023-12-17T00:08:25.685Z,100.00
2023-12-17T00:10:54.507Z,100.00
2023-12-17T00:13:24.746Z,100.00
2023-12-17T00:15:53.425Z,100.00
2023-12-17T00:18:22.121Z,100.00
2023-12-17T00:20:50.928Z,100.00
2023-12-17T00:23:19.472Z,100.00
2023-12-17T00:25:49.253Z,100.00
2023-12-17T00:28:19.063Z,100.00
2023-12-17T00:30:47.622Z,100.00
2023-12-17T00:33:16.250Z,100.00
2023-12-17T00:35:45.154Z,100.00
2023-12-17T00:38:13.754Z,100.00
2023-12-17T00:40:42.279Z,100.00
2023-12-17T00:43:12.170Z,100.00
2023-12-17T00:45:40.681Z,100.00
2023-12-17T00:48:09.250Z,100.00
2023-12-17T00:50:37.988Z,100.00
2023-12-17T00:53:06.475Z,100.00
2023-12-17T00:55:35.328Z,100.00
2023-12-17T00:58:04.080Z,100.00
2023-12-17T01:00:36.317Z,100.00
2023-12-17T01:03:08.973Z,100.00
2023-12-17T01:05:38.329Z,100.00
2023-12-17T01:08:06.914Z,100.00
2023-12-17T01:10:35.355Z,100.00
2023-12-17T01:13:03.951Z,100.00
2023-12-17T01:15:34.003Z,100.00
2023-12-17T01:18:02.710Z,100.00
2023-12-17T01:20:31.317Z,100.00
2023-12-17T01:22:59.796Z,100.00
2023-12-17T01:25:28.308Z,100.00
2023-12-17T01:27:56.787Z,100.00
2023-12-17T01:30:25.282Z,100.00
2023-12-17T01:32:55.923Z,100.00
2023-12-17T01:35:24.455Z,100.00
2023-12-17T01:37:52.948Z,100.00
2023-12-17T01:40:21.401Z,100.00
2023-12-17T01:42:49.859Z,100.00
2023-12-17T01:45:18.746Z,100.00
2023-12-17T01:47:47.616Z,100.00
2023-12-17T01:50:17.926Z,100.00
2023-12-17T01:52:47.046Z,100.00
2023-12-17T01:55:15.976Z,100.00
2023-12-17T01:57:45.040Z,100.00
2023-12-17T02:00:15.026Z,100.00
2023-12-17T02:02:44.463Z,100.00
2023-12-17T02:05:12.977Z,100.00
2023-12-17T02:07:44.362Z,100.00
2023-12-17T02:10:13.160Z,100.00
2023-12-17T02:12:41.638Z,100.00
2023-12-17T02:15:10.908Z,100.00
2023-12-17T02:17:39.684Z,100.00
2023-12-17T02:20:09.787Z,100.00
2023-12-17T02:22:41.425Z,100.00
2023-12-17T02:25:11.942Z,100.00
2023-12-17T02:27:41.345Z,100.00
2023-12-17T02:30:11.023Z,100.00
2023-12-17T02:32:39.605Z,100.00
2023-12-17T02:35:08.697Z,100.00
2023-12-17T02:37:40.701Z,100.00
2023-12-17T02:40:11.937Z,100.00
2023-12-17T02:42:40.720Z,100.00
2023-12-17T02:45:11.142Z,100.00
2023-12-17T02:47:40.043Z,100.00
2023-12-17T02:50:09.495Z,100.00
2023-12-17T02:52:38.889Z,100.00
2023-12-17T02:55:08.454Z,100.00
2023-12-17T02:57:38.799Z,100.00
2023-12-17T03:00:09.005Z,100.00
2023-12-17T03:02:37.522Z,100.00
2023-12-17T03:05:06.665Z,100.00
2023-12-17T03:07:35.178Z,100.00
2023-12-17T03:10:03.780Z,100.00
2023-12-17T03:12:32.400Z,100.00
2023-12-17T03:15:02.353Z,100.00
2023-12-17T03:17:30.861Z,100.00
2023-12-17T03:19:59.480Z,100.00
2023-12-17T03:22:27.913Z,100.00
2023-12-17T03:24:56.757Z,100.00
2023-12-17T03:27:25.310Z,100.00
2023-12-17T03:29:55.122Z,100.00
2023-12-17T03:32:25.156Z,100.00
2023-12-17T03:34:53.764Z,100.00
2023-12-17T03:37:22.350Z,100.00
2023-12-17T03:39:51.517Z,99.76
2023-12-17T03:42:20.063Z,97.84
2023-12-17T03:44:48.581Z,99.44
2023-12-17T03:47:17.369Z,98.64
2023-12-17T03:49:47.244Z,99.66
2023-12-17T03:52:16.074Z,98.40
2023-12-17T03:54:44.605Z,98.26
2023-12-17T03:57:13.036Z,99.83
2023-12-17T03:59:41.671Z,99.89
2023-12-17T04:02:10.115Z,100.00
2023-12-17T04:04:38.581Z,100.00
2023-12-17T04:07:08.511Z,99.97
2023-12-17T04:09:37.210Z,100.00
2023-12-17T04:12:06.345Z,100.00
2023-12-17T04:14:35.053Z,98.92
2023-12-17T04:17:03.500Z,100.00
2023-12-17T04:19:32.468Z,100.00
2023-12-17T04:22:00.997Z,100.00
2023-12-17T04:24:30.943Z,100.00
2023-12-17T04:26:59.550Z,99.65
2023-12-17T04:29:28.000Z,100.00
2023-12-17T04:31:56.474Z,100.00
2023-12-17T04:34:25.432Z,100.00
2023-12-17T04:36:55.111Z,100.00
2023-12-17T04:39:23.887Z,100.00
2023-12-17T04:41:53.820Z,100.00
2023-12-17T04:44:22.368Z,100.00
2023-12-17T04:46:50.948Z,100.00
2023-12-17T04:49:19.973Z,100.00
2023-12-17T04:51:48.499Z,100.00
2023-12-17T04:54:16.997Z,100.00
2023-12-17T04:56:45.442Z,100.00
2023-12-17T04:59:15.240Z,100.00
2023-12-17T05:01:43.805Z,100.00
2023-12-17T05:04:12.534Z,100.00
2023-12-17T05:06:41.242Z,100.00
2023-12-17T05:09:10.066Z,99.83
2023-12-17T05:11:38.636Z,100.00
2023-12-17T05:14:07.098Z,100.00
2023-12-17T05:16:37.066Z,100.00
2023-12-17T05:19:05.646Z,100.00
2023-12-17T05:21:34.219Z,100.00
2023-12-17T05:24:04.085Z,100.00
2023-12-17T05:26:32.563Z,100.00
2023-12-17T05:29:01.044Z,100.00
2023-12-17T05:31:29.898Z,100.00
2023-12-17T05:33:59.842Z,100.00
2023-12-17T05:36:28.386Z,100.00
2023-12-17T05:38:57.271Z,100.00
2023-12-17T05:41:25.756Z,100.00
2023-12-17T05:43:54.284Z,100.00
2023-12-17T05:46:22.809Z,100.00
2023-12-17T05:48:51.412Z,100.00
2023-12-17T05:51:22.013Z,100.00
2023-12-17T05:53:50.642Z,100.00
2023-12-17T05:56:19.332Z,100.00
2023-12-17T05:58:47.853Z,100.00
2023-12-17T06:01:17.127Z,99.95
2023-12-17T06:03:45.832Z,99.57
2023-12-17T06:06:16.552Z,100.00
2023-12-17T06:08:46.701Z,99.07
2023-12-17T06:11:18.786Z,97.96
2023-12-17T06:13:47.522Z,96.89
2023-12-17T06:16:16.186Z,97.74
2023-12-17T06:18:45.047Z,98.60
2023-12-17T06:21:23.644Z,100.00
2023-12-17T06:23:58.411Z,100.00
2023-12-17T06:26:27.272Z,100.00
2023-12-17T06:28:56.059Z,100.00
2023-12-17T06:31:25.220Z,100.00
2023-12-17T06:33:55.070Z,100.00
2023-12-17T06:36:24.167Z,99.07
2023-12-17T06:38:54.212Z,98.88
2023-12-17T06:41:22.747Z,100.00
2023-12-17T06:43:51.230Z,100.00
2023-12-17T06:46:19.956Z,100.00
2023-12-17T06:48:51.631Z,100.00
2023-12-17T06:51:20.632Z,100.00
2023-12-17T06:53:51.250Z,100.00
2023-12-17T06:56:22.124Z,100.00
2023-12-17T06:58:50.778Z,100.00
2023-12-17T07:01:23.057Z,100.00
2023-12-17T07:03:52.183Z,100.00
2023-12-17T07:06:20.751Z,100.00
2023-12-17T07:08:49.775Z,99.51
2023-12-17T07:11:18.354Z,100.00
2023-12-17T07:13:49.097Z,100.00
2023-12-17T07:16:22.313Z,100.00
2023-12-17T07:18:50.982Z,100.00
2023-12-17T07:21:20.352Z,99.68
2023-12-17T07:23:50.662Z,100.00
2023-12-17T07:26:23.040Z,100.00
2023-12-17T07:28:53.273Z,100.00
2023-12-17T07:31:21.900Z,100.00
2023-12-17T07:33:50.573Z,99.41
2023-12-17T07:36:21.143Z,99.94
2023-12-17T07:38:49.666Z,100.00
2023-12-17T07:41:18.488Z,100.00
2023-12-17T07:43:46.999Z,100.00
2023-12-17T07:46:17.333Z,100.00
2023-12-17T07:48:46.012Z,100.00
2023-12-17T07:51:14.624Z,100.00
2023-12-17T07:53:43.125Z,100.00
2023-12-17T07:56:12.038Z,99.97
2023-12-17T07:58:41.137Z,98.54
2023-12-17T08:01:10.627Z,98.36
2023-12-17T08:03:41.627Z,98.82
2023-12-17T08:06:10.620Z,98.96
2023-12-17T08:08:39.136Z,99.73
2023-12-17T08:11:13.164Z,100.00
2023-12-17T08:13:41.906Z,100.00
2023-12-17T08:16:11.297Z,99.12
2023-12-17T08:18:41.455Z,99.87
2023-12-17T08:21:10.116Z,100.00
2023-12-17T08:23:41.737Z,100.00
2023-12-17T08:26:12.332Z,100.00
2023-12-17T08:28:40.876Z,99.20
2023-12-17T08:31:10.993Z,97.42
2023-12-17T08:33:41.383Z,96.57
2023-12-17T08:36:11.451Z,97.55
2023-12-17T08:38:40.006Z,96.26
2023-12-17T08:41:08.654Z,94.36
2023-12-17T08:43:38.110Z,94.45
2023-12-17T08:46:07.374Z,94.47
2023-12-17T08:48:37.120Z,95.05
2023-12-17T08:51:09.217Z,95.19
2023-12-17T08:53:38.015Z,94.65
2023-12-17T08:56:09.519Z,95.08
2023-12-17T08:58:38.550Z,93.70
2023-12-17T09:01:07.461Z,92.15
2023-12-17T09:03:36.514Z,90.60
2023-12-17T09:06:05.222Z,91.12
2023-12-17T09:08:35.072Z,90.42
2023-12-17T09:11:03.682Z,91.59
2023-12-17T09:13:32.174Z,90.73
2023-12-17T09:16:00.648Z,89.03
2023-12-17T09:18:29.293Z,90.37
2023-12-17T09:21:00.466Z,90.47
2023-12-17T09:23:28.958Z,91.35
2023-12-17T09:25:59.123Z,90.00
2023-12-17T09:28:27.609Z,90.05
2023-12-17T09:30:56.472Z,89.90
2023-12-17T09:33:25.138Z,90.23
2023-12-17T09:35:53.713Z,90.37
2023-12-17T09:38:22.308Z,91.03
2023-12-17T09:40:51.211Z,90.50
2023-12-17T09:43:26.116Z,90.93
2023-12-17T09:45:54.995Z,89.66
2023-12-17T09:48:24.916Z,88.89
2023-12-17T09:50:53.938Z,87.99
2023-12-17T09:53:24.289Z,87.05
2023-12-17T09:55:52.758Z,87.01
2023-12-17T09:58:22.668Z,87.33
2023-12-17T10:00:51.220Z,87.14
2023-12-17T10:03:20.567Z,88.51
2023-12-17T10:05:52.110Z,89.23
2023-12-17T10:08:21.086Z,88.30
2023-12-17T10:10:49.538Z,87.74
2023-12-17T10:13:21.320Z,86.94
2023-12-17T10:15:52.919Z,87.97
2023-12-17T10:18:22.425Z,86.58
2023-12-17T10:20:51.891Z,86.41
2023-12-17T10:23:20.407Z,85.58
2023-12-17T10:25:48.955Z,87.17
2023-12-17T10:28:18.142Z,85.98
2023-12-17T10:30:48.882Z,86.50
2023-12-17T10:33:27.837Z,84.87
2023-12-17T10:35:56.886Z,85.58
2023-12-17T10:38:25.918Z,84.74
2023-12-17T10:40:55.032Z,83.57
2023-12-17T10:43:24.912Z,84.81
2023-12-17T10:45:56.339Z,84.54
2023-12-17T10:48:26.704Z,84.97
2023-12-17T10:50:58.407Z,83.42
2023-12-17T10:53:26.916Z,84.68
2023-12-17T10:55:55.699Z,85.49
2023-12-17T10:58:25.534Z,87.20
2023-12-17T11:00:54.623Z,87.43
2023-12-17T11:03:26.349Z,86.28
2023-12-17T11:06:00.513Z,85.53
2023-12-17T11:08:29.805Z,85.66
2023-12-17T11:10:59.576Z,84.46
2023-12-17T11:13:28.262Z,85.42
2023-12-17T11:15:57.447Z,84.70
2023-12-17T11:18:43.447Z,84.14
2023-12-17T11:21:12.640Z,83.07
2023-12-17T11:23:41.131Z,82.31
2023-12-17T11:26:10.183Z,83.10
2023-12-17T11:28:38.701Z,83.27
2023-12-17T11:31:07.854Z,83.73
2023-12-17T11:33:41.656Z,83.91
2023-12-17T11:36:14.318Z,84.32
2023-12-17T11:38:43.109Z,83.56
2023-12-17T11:41:11.559Z,83.10
2023-12-17T11:43:40.035Z,83.31
2023-12-17T11:46:13.057Z,84.69
2023-12-17T11:48:44.913Z,83.87
2023-12-17T11:51:27.237Z,82.33
2023-12-17T11:53:55.861Z,82.67
2023-12-17T11:56:31.158Z,82.73
2023-12-17T11:59:00.174Z,83.40
2023-12-17T12:01:28.790Z,84.48
2023-12-17T12:04:00.972Z,84.46
2023-12-17T12:06:31.083Z,83.41
2023-12-17T12:09:00.543Z,81.92
2023-12-17T12:11:34.679Z,83.50
2023-12-17T12:14:03.662Z,82.02
2023-12-17T12:16:41.561Z,82.21
2023-12-17T12:19:17.345Z,82.72
2023-12-17T12:21:51.889Z,82.03
2023-12-17T12:24:22.291Z,81.42
2023-12-17T12:26:52.019Z,81.19
2023-12-17T12:29:20.675Z,80.83
2023-12-17T12:31:53.972Z,82.16
2023-12-17T12:34:35.645Z,81.00
2023-12-17T12:37:04.519Z,81.13
2023-12-17T12:39:45.179Z,81.24
2023-12-17T12:42:21.732Z,81.71
2023-12-17T12:44:50.758Z,80.31
2023-12-17T12:47:21.206Z,80.16
2023-12-17T12:49:51.216Z,80.97
2023-12-17T12:52:19.899Z,81.59
2023-12-17T12:54:50.193Z,80.71
2023-12-17T12:57:19.163Z,81.47
2023-12-17T12:59:47.846Z,82.17
2023-12-17T13:02:16.717Z,81.41
2023-12-17T13:04:45.207Z,83.32
2023-12-17T13:07:15.127Z,82.49
2023-12-17T13:09:46.003Z,83.05
2023-12-17T13:12:17.583Z,83.15
2023-12-17T13:14:46.298Z,82.97
2023-12-17T13:17:14.974Z,82.74
2023-12-17T13:19:43.516Z,84.31
2023-12-17T13:22:12.141Z,84.29
2023-12-17T13:24:41.962Z,84.15
2023-12-17T13:27:10.448Z,84.09
2023-12-17T13:29:38.937Z,82.46
2023-12-17T13:32:07.898Z,83.45
2023-12-17T13:34:36.351Z,83.65
2023-12-17T13:39:38.915Z,85.26
2023-12-17T13:42:09.244Z,85.16
2023-12-17T13:44:38.292Z,85.77
2023-12-17T13:47:07.360Z,87.19
2023-12-17T13:49:37.947Z,87.40
2023-12-17T13:52:07.194Z,87.96
2023-12-17T13:54:35.980Z,88.14
2023-12-17T13:57:04.854Z,88.60
2023-12-17T13:59:34.649Z,88.56
2023-12-17T14:02:03.408Z,87.64
2023-12-17T14:04:31.893Z,88.04
2023-12-17T14:07:00.383Z,88.31
2023-12-17T14:09:29.017Z,88.70
2023-12-17T14:11:57.552Z,89.69
2023-12-17T14:14:26.209Z,89.14
2023-12-17T14:16:56.073Z,87.92
2023-12-17T14:19:25.016Z,89.26
2023-12-17T14:21:53.567Z,92.42
2023-12-17T14:24:22.381Z,94.36
2023-12-17T14:26:50.866Z,93.94
2023-12-17T14:29:19.414Z,93.85
2023-12-17T14:31:48.702Z,92.41
2023-12-17T14:34:19.527Z,93.01
2023-12-17T14:36:48.206Z,94.19
2023-12-17T14:39:16.891Z,94.15
2023-12-17T14:41:45.987Z,94.50
2023-12-17T14:44:14.509Z,95.01
2023-12-17T14:46:43.033Z,95.26
2023-12-17T14:49:11.567Z,96.25
2023-12-17T14:51:41.645Z,96.65
2023-12-17T14:54:10.216Z,94.94
2023-12-17T14:56:38.804Z,94.73
2023-12-17T14:59:07.432Z,98.38
2023-12-17T15:01:36.703Z,98.47
2023-12-17T15:04:06.013Z,98.74
2023-12-17T15:06:34.952Z,100.00
2023-12-17T15:09:05.375Z,100.00
2023-12-17T15:11:34.068Z,100.00
2023-12-17T15:14:03.446Z,100.00
2023-12-17T15:16:31.951Z,100.00
2023-12-17T15:19:01.524Z,100.00
2023-12-17T15:21:31.255Z,100.00
2023-12-17T15:23:59.937Z,100.00
2023-12-17T15:26:31.098Z,100.00
2023-12-17T15:28:59.582Z,100.00
2023-12-17T15:31:29.867Z,100.00
2023-12-17T15:33:59.754Z,100.00
2023-12-17T15:36:29.927Z,100.00
2023-12-17T15:38:58.588Z,100.00
2023-12-17T15:41:27.047Z,100.00
2023-12-17T15:43:56.913Z,100.00
2023-12-17T15:46:27.661Z,100.00
2023-12-17T15:48:56.525Z,100.00
2023-12-17T15:51:26.871Z,100.00
2023-12-17T15:53:56.807Z,100.00
2023-12-17T15:56:25.429Z,100.00
2023-12-17T15:58:56.113Z,100.00
2023-12-17T16:01:24.874Z,100.00
2023-12-17T16:03:54.696Z,100.00
2023-12-17T16:06:24.194Z,100.00
2023-12-17T16:08:52.843Z,100.00
2023-12-17T16:11:21.416Z,100.00
2023-12-17T16:13:49.938Z,100.00
2023-12-17T16:16:23.918Z,100.00
2023-12-17T16:18:52.932Z,100.00
2023-12-17T16:21:21.808Z,100.00
2023-12-17T16:23:50.620Z,100.00
2023-12-17T16:26:19.179Z,100.00
2023-12-17T16:28:51.830Z,100.00
2023-12-17T16:31:20.480Z,100.00
2023-12-17T16:33:50.432Z,100.00
2023-12-17T16:36:19.179Z,100.00
2023-12-17T16:38:48.180Z,100.00
2023-12-17T16:41:18.646Z,100.00
2023-12-17T16:43:48.358Z,100.00
2023-12-17T16:46:16.953Z,100.00
2023-12-17T16:48:58.056Z,100.00
2023-12-17T16:51:29.968Z,100.00
2023-12-17T16:53:58.624Z,100.00
2023-12-17T16:56:28.846Z,100.00
2023-12-17T16:58:57.514Z,100.00
2023-12-17T17:01:26.107Z,100.00
2023-12-17T17:06:29.927Z,100.00
2023-12-17T17:08:58.469Z,100.00
2023-12-17T17:11:27.087Z,100.00
2023-12-17T17:13:55.537Z,100.00
2023-12-17T17:16:23.995Z,100.00
2023-12-17T17:18:52.581Z,100.00
2023-12-17T17:21:21.170Z,100.00
2023-12-17T17:23:54.198Z,100.00
2023-12-17T17:26:22.776Z,100.00
2023-12-17T17:28:51.295Z,100.00
2023-12-17T17:31:19.892Z,100.00
2023-12-17T17:33:50.489Z,100.00
2023-12-17T17:36:20.026Z,100.00
2023-12-17T17:38:50.446Z,100.00
2023-12-17T17:41:19.077Z,100.00
2023-12-17T17:43:47.629Z,100.00
2023-12-17T17:46:16.288Z,100.00
2023-12-17T17:48:45.022Z,100.00
2023-12-17T17:51:13.581Z,100.00
2023-12-17T17:53:41.252Z,100.00
2023-12-17T17:56:11.402Z,100.00
2023-12-17T17:58:42.262Z,100.00
2023-12-17T18:01:10.779Z,100.00
2023-12-17T18:03:39.669Z,100.00
2023-12-17T18:06:08.782Z,100.00
2023-12-17T18:08:37.310Z,100.00
2023-12-17T18:11:06.007Z,100.00
2023-12-17T18:13:35.923Z,100.00
2023-12-17T18:16:04.686Z,100.00
2023-12-17T18:18:33.317Z,100.00
2023-12-17T18:21:02.307Z,100.00
2023-12-17T18:23:30.810Z,100.00
2023-12-17T18:25:59.308Z,100.00
2023-12-17T18:28:27.733Z,100.00
2023-12-17T18:30:57.638Z,100.00
2023-12-17T18:33:26.215Z,100.00
2023-12-17T18:35:55.327Z,100.00
2023-12-17T18:38:23.858Z,100.00
2023-12-17T18:40:54.861Z,100.00
2023-12-17T18:43:23.338Z,100.00
2023-12-17T18:45:51.808Z,100.00
2023-12-17T18:48:21.744Z,100.00
2023-12-17T18:50:50.332Z,100.00
2023-12-17T18:53:19.011Z,100.00
2023-12-17T18:55:47.590Z,100.00
2023-12-17T18:58:16.092Z,100.00
2023-12-17T19:00:44.594Z,100.00
2023-12-17T19:03:13.231Z,100.00
2023-12-17T19:05:43.108Z,100.00
2023-12-17T19:08:11.587Z,100.00
2023-12-17T19:10:40.109Z,100.00
2023-12-17T19:13:08.604Z,100.00
2023-12-17T19:15:37.174Z,100.00
2023-12-17T19:18:06.519Z,100.00
2023-12-17T19:20:36.584Z,100.00
2023-12-17T19:23:06.613Z,100.00
2023-12-17T19:25:35.157Z,100.00
2023-12-17T19:28:03.651Z,100.00
2023-12-17T19:30:32.838Z,100.00
2023-12-17T19:33:03.710Z,100.00
2023-12-17T19:35:32.939Z,100.00
2023-12-17T19:38:02.043Z,100.00
2023-12-17T19:40:31.901Z,100.00
2023-12-17T19:43:00.446Z,100.00
2023-12-17T19:45:28.993Z,100.00
2023-12-17T19:47:57.633Z,100.00
2023-12-17T19:50:26.166Z,100.00
2023-12-17T19:52:54.711Z,100.00
2023-12-17T19:55:23.537Z,100.00
2023-12-17T19:57:53.364Z,100.00
2023-12-17T20:00:22.905Z,100.00
2023-12-17T20:02:52.128Z,100.00
2023-12-17T20:05:21.475Z,100.00
2023-12-17T20:07:50.019Z,100.00
2023-12-17T20:10:18.705Z,100.00
2023-12-17T20:12:50.461Z,100.00
2023-12-17T20:15:20.464Z,100.00
2023-12-17T20:17:49.053Z,100.00
2023-12-17T20:20:19.758Z,100.00
2023-12-17T20:22:51.306Z,100.00
2023-12-17T20:25:19.885Z,100.00
2023-12-17T20:27:51.495Z,100.00
2023-12-17T20:30:21.444Z,100.00
2023-12-17T20:32:50.034Z,100.00
2023-12-17T20:35:18.590Z,100.00
2023-12-17T20:37:47.408Z,100.00
2023-12-17T20:40:17.778Z,100.00
2023-12-17T20:42:46.466Z,100.00
2023-12-17T20:45:15.370Z,100.00
2023-12-17T20:47:45.351Z,100.00
2023-12-17T20:50:14.191Z,100.00
2023-12-17T20:52:42.816Z,100.00
2023-12-17T20:55:11.871Z,100.00
2023-12-17T20:57:40.346Z,100.00
2023-12-17T21:00:10.345Z,100.00
2023-12-17T21:02:40.665Z,100.00
2023-12-17T21:05:14.468Z,100.00
2023-12-17T21:07:46.266Z,100.00
2023-12-17T21:10:15.076Z,100.00
2023-12-17T21:12:44.207Z,100.00
2023-12-17T21:15:13.453Z,100.00
2023-12-17T21:17:42.281Z,100.00
2023-12-17T21:20:13.244Z,100.00
2023-12-17T21:22:42.005Z,100.00
2023-12-17T21:25:11.710Z,100.00
2023-12-17T21:27:40.663Z,100.00
2023-12-17T21:30:10.384Z,100.00
2023-12-17T21:32:39.400Z,100.00
2023-12-17T21:35:09.006Z,100.00
2023-12-17T21:37:39.100Z,100.00
2023-12-17T21:40:09.202Z,100.00
2023-12-17T21:42:41.022Z,100.00
2023-12-17T21:45:10.496Z,100.00
2023-12-17T21:47:42.902Z,100.00
2023-12-17T21:50:12.177Z,100.00
2023-12-17T21:52:42.227Z,100.00
2023-12-17T21:55:10.748Z,100.00
2023-12-17T21:57:41.887Z,100.00
2023-12-17T22:00:17.257Z,100.00
2023-12-17T22:02:46.390Z,100.00
2023-12-17T22:05:15.111Z,100.00
2023-12-17T22:07:45.330Z,100.00
2023-12-17T22:10:15.457Z,100.00
2023-12-17T22:12:44.193Z,100.00
2023-12-17T22:15:13.079Z,100.00
2023-12-17T22:17:42.767Z,100.00
2023-12-17T22:20:12.361Z,100.00
2023-12-17T22:22:40.815Z,100.00
2023-12-17T22:25:11.087Z,100.00
2023-12-17T22:27:40.718Z,100.00
2023-12-17T22:30:10.429Z,100.00
2023-12-17T22:32:39.261Z,100.00
2023-12-17T22:35:08.384Z,100.00
2023-12-17T22:37:37.585Z,100.00
2023-12-17T22:40:06.886Z,100.00
2023-12-17T22:42:38.445Z,100.00
2023-12-17T22:45:10.061Z,100.00
2023-12-17T22:47:38.967Z,100.00
2023-12-17T22:50:09.764Z,100.00
2023-12-17T22:52:40.239Z,100.00
2023-12-17T22:55:09.464Z,100.00
2023-12-17T22:57:39.746Z,100.00
2023-12-17T23:00:14.353Z,100.00
2023-12-17T23:02:45.113Z,100.00
2023-12-17T23:05:13.791Z,100.00
2023-12-17T23:07:42.559Z,100.00
2023-12-17T23:10:11.758Z,100.00
2023-12-17T23:12:42.163Z,100.00
2023-12-17T23:15:11.397Z,100.00
2023-12-17T23:17:40.690Z,100.00
2023-12-17T23:20:11.855Z,100.00
2023-12-17T23:22:40.870Z,100.00
2023-12-17T23:25:12.512Z,100.00
2023-12-17T23:27:42.836Z,100.00
2023-12-17T23:30:12.244Z,100.00
2023-12-17T23:32:40.814Z,100.00
2023-12-17T23:35:12.250Z,100.00
2023-12-17T23:37:41.017Z,100.00
2023-12-17T23:40:13.375Z,100.00
2023-12-17T23:42:43.990Z,100.00
2023-12-17T23:45:12.847Z,100.00
2023-12-17T23:47:42.843Z,100.00
2023-12-17T23:50:11.817Z,100.00
2023-12-17T23:52:43.047Z,100.00
2023-12-17T23:55:11.803Z,100.00
2023-12-17T23:57:40.752Z,100.00
